sensor_id;sensor_type;location;lat;lon;timestamp;pressure;altitude;pressure_sealevel;temperature;humidity
51460;BME280;37534;39.772;2.718;2022-07-29T00:01:50;101067.84;;;25.73;100.00
51460;BME280;37534;39.772;2.718;2022-07-29T00:04:18;101047.28;;;25.55;100.00
51460;BME280;37534;39.772;2.718;2022-07-29T00:06:44;101042.25;;;25.52;100.00
51460;BME280;37534;39.772;2.718;2022-07-29T00:09:09;101086.59;;;25.70;100.00
51460;BME280;37534;39.772;2.718;2022-07-29T00:11:35;101063.97;;;25.56;100.00
51460;BME280;37534;39.772;2.718;2022-07-29T00:14:00;101035.28;;;25.30;100.00
51460;BME280;37534;39.772;2.718;2022-07-29T00:16:26;101044.03;;;25.31;100.00
51460;BME280;37534;39.772;2.718;2022-07-29T00:18:51;101048.56;;;25.40;100.00
51460;BME280;37534;39.772;2.718;2022-07-29T00:21:17;101069.31;;;25.66;100.00
51460;BME280;37534;39.772;2.718;2022-07-29T00:23:42;101067.00;;;25.51;100.00
51460;BME280;37534;39.772;2.718;2022-07-29T00:26:08;101045.59;;;25.33;100.00
51460;BME280;37534;39.772;2.718;2022-07-29T00:28:34;101049.31;;;25.31;100.00
51460;BME280;37534;39.772;2.718;2022-07-29T00:30:59;101035.41;;;25.29;100.00
51460;BME280;37534;39.772;2.718;2022-07-29T00:33:25;101023.91;;;25.18;100.00
51460;BME280;37534;39.772;2.718;2022-07-29T00:35:50;101029.19;;;25.18;100.00
51460;BME280;37534;39.772;2.718;2022-07-29T00:38:18;101040.84;;;25.16;100.00
51460;BME280;37534;39.772;2.718;2022-07-29T00:40:45;101035.41;;;25.17;100.00
51460;BME280;37534;39.772;2.718;2022-07-29T00:43:12;101068.53;;;25.33;100.00
51460;BME280;37534;39.772;2.718;2022-07-29T00:45:39;101024.00;;;24.96;100.00
51460;BME280;37534;39.772;2.718;2022-07-29T00:48:05;101043.78;;;25.01;100.00
51460;BME280;37534;39.772;2.718;2022-07-29T00:50:31;101012.19;;;24.79;100.00
51460;BME280;37534;39.772;2.718;2022-07-29T00:52:57;101019.41;;;24.77;100.00
51460;BME280;37534;39.772;2.718;2022-07-29T00:55:23;101036.88;;;24.89;100.00
51460;BME280;37534;39.772;2.718;2022-07-29T00:57:49;101058.78;;;25.01;100.00
51460;BME280;37534;39.772;2.718;2022-07-29T01:00:19;101029.31;;;24.84;100.00
51460;BME280;37534;39.772;2.718;2022-07-29T01:02:46;101022.34;;;24.83;100.00
51460;BME280;37534;39.772;2.718;2022-07-29T01:05:17;101005.63;;;24.73;100.00
51460;BME280;37534;39.772;2.718;2022-07-29T01:07:44;101020.81;;;24.81;100.00
51460;BME280;37534;39.772;2.718;2022-07-29T01:10:12;101028.09;;;24.89;100.00
51460;BME280;37534;39.772;2.718;2022-07-29T01:12:39;101010.16;;;24.71;100.00
51460;BME280;37534;39.772;2.718;2022-07-29T01:15:06;101018.81;;;24.62;100.00
51460;BME280;37534;39.772;2.718;2022-07-29T01:29:05;101027.72;;;24.61;100.00
51460;BME280;37534;39.772;2.718;2022-07-29T01:34:06;101052.13;;;24.85;100.00
51460;BME280;37534;39.772;2.718;2022-07-29T01:36:36;101008.50;;;24.47;100.00
51460;BME280;37534;39.772;2.718;2022-07-29T01:39:07;101005.69;;;24.39;100.00
51460;BME280;37534;39.772;2.718;2022-07-29T01:41:36;101025.06;;;24.49;100.00
51460;BME280;37534;39.772;2.718;2022-07-29T01:44:11;101014.19;;;24.54;100.00
51460;BME280;37534;39.772;2.718;2022-07-29T01:46:40;101022.41;;;24.49;100.00
51460;BME280;37534;39.772;2.718;2022-07-29T01:49:13;101049.28;;;24.66;100.00
51460;BME280;37534;39.772;2.718;2022-07-29T01:51:46;101023.63;;;24.45;100.00
51460;BME280;37534;39.772;2.718;2022-07-29T01:56:43;101036.00;;;24.45;100.00
51460;BME280;37534;39.772;2.718;2022-07-29T01:59:10;101038.50;;;24.46;100.00
51460;BME280;37534;39.772;2.718;2022-07-29T02:01:39;101032.75;;;24.41;100.00
51460;BME280;37534;39.772;2.718;2022-07-29T02:04:07;101038.38;;;24.59;100.00
51460;BME280;37534;39.772;2.718;2022-07-29T02:06:38;101020.03;;;24.35;100.00
51460;BME280;37534;39.772;2.718;2022-07-29T02:09:04;101031.31;;;24.48;100.00
51460;BME280;37534;39.772;2.718;2022-07-29T02:11:33;101035.59;;;24.49;100.00
51460;BME280;37534;39.772;2.718;2022-07-29T02:14:01;101038.75;;;24.55;100.00
51460;BME280;37534;39.772;2.718;2022-07-29T02:16:30;101078.03;;;24.80;100.00
51460;BME280;37534;39.772;2.718;2022-07-29T02:18:57;101028.78;;;24.47;100.00
51460;BME280;37534;39.772;2.718;2022-07-29T02:21:24;101036.31;;;24.52;100.00
51460;BME280;37534;39.772;2.718;2022-07-29T02:23:52;101045.69;;;24.44;100.00
51460;BME280;37534;39.772;2.718;2022-07-29T02:26:23;101071.56;;;24.51;100.00
51460;BME280;37534;39.772;2.718;2022-07-29T02:28:52;101024.88;;;24.07;100.00
51460;BME280;37534;39.772;2.718;2022-07-29T02:31:21;101053.38;;;24.25;100.00
51460;BME280;37534;39.772;2.718;2022-07-29T02:33:48;101055.53;;;24.20;100.00
51460;BME280;37534;39.772;2.718;2022-07-29T02:36:15;101041.53;;;24.08;100.00
51460;BME280;37534;39.772;2.718;2022-07-29T02:38:42;101067.63;;;24.45;100.00
51460;BME280;37534;39.772;2.718;2022-07-29T02:41:22;101031.31;;;24.26;100.00
51460;BME280;37534;39.772;2.718;2022-07-29T02:43:52;101030.84;;;24.21;100.00
51460;BME280;37534;39.772;2.718;2022-07-29T02:46:27;101031.56;;;24.12;100.00
51460;BME280;37534;39.772;2.718;2022-07-29T02:51:37;101022.34;;;23.95;100.00
51460;BME280;37534;39.772;2.718;2022-07-29T02:54:07;101030.13;;;23.96;100.00
51460;BME280;37534;39.772;2.718;2022-07-29T02:56:34;101053.84;;;24.19;100.00
51460;BME280;37534;39.772;2.718;2022-07-29T02:59:05;101041.88;;;24.15;100.00
51460;BME280;37534;39.772;2.718;2022-07-29T03:01:33;101057.91;;;24.23;100.00
51460;BME280;37534;39.772;2.718;2022-07-29T03:04:03;101013.97;;;23.89;100.00
51460;BME280;37534;39.772;2.718;2022-07-29T03:06:30;101040.09;;;24.04;100.00
51460;BME280;37534;39.772;2.718;2022-07-29T03:08:59;101017.66;;;23.98;100.00
51460;BME280;37534;39.772;2.718;2022-07-29T03:11:25;101001.16;;;23.85;100.00
51460;BME280;37534;39.772;2.718;2022-07-29T03:13:52;101001.97;;;23.85;100.00
51460;BME280;37534;39.772;2.718;2022-07-29T03:16:19;100995.88;;;23.85;100.00
51460;BME280;37534;39.772;2.718;2022-07-29T03:18:44;100992.25;;;23.86;100.00
51460;BME280;37534;39.772;2.718;2022-07-29T03:21:10;100983.03;;;23.80;100.00
51460;BME280;37534;39.772;2.718;2022-07-29T03:23:36;101014.19;;;23.86;100.00
51460;BME280;37534;39.772;2.718;2022-07-29T03:26:02;101023.41;;;23.92;100.00
51460;BME280;37534;39.772;2.718;2022-07-29T03:28:27;101015.63;;;23.90;100.00
51460;BME280;37534;39.772;2.718;2022-07-29T03:30:53;101007.63;;;23.81;100.00
51460;BME280;37534;39.772;2.718;2022-07-29T03:33:19;101025.56;;;23.87;100.00
51460;BME280;37534;39.772;2.718;2022-07-29T03:35:44;101015.53;;;23.81;100.00
51460;BME280;37534;39.772;2.718;2022-07-29T03:38:10;101013.34;;;23.86;100.00
51460;BME280;37534;39.772;2.718;2022-07-29T03:40:52;101022.34;;;23.83;100.00
51460;BME280;37534;39.772;2.718;2022-07-29T03:43:19;101011.44;;;23.88;100.00
51460;BME280;37534;39.772;2.718;2022-07-29T03:45:49;101024.38;;;24.02;100.00
51460;BME280;37534;39.772;2.718;2022-07-29T03:48:18;101004.00;;;23.82;100.00
51460;BME280;37534;39.772;2.718;2022-07-29T03:50:45;101024.84;;;23.85;100.00
51460;BME280;37534;39.772;2.718;2022-07-29T03:53:11;101035.72;;;23.80;100.00
51460;BME280;37534;39.772;2.718;2022-07-29T03:55:44;100998.94;;;23.56;100.00
51460;BME280;37534;39.772;2.718;2022-07-29T03:58:11;100996.03;;;23.59;100.00
51460;BME280;37534;39.772;2.718;2022-07-29T04:00:37;101025.56;;;23.87;100.00
51460;BME280;37534;39.772;2.718;2022-07-29T04:03:04;101019.09;;;23.91;100.00
51460;BME280;37534;39.772;2.718;2022-07-29T04:05:29;101019.06;;;23.80;100.00
51460;BME280;37534;39.772;2.718;2022-07-29T04:07:55;101039.47;;;23.89;100.00
51460;BME280;37534;39.772;2.718;2022-07-29T04:10:21;101013.31;;;23.63;100.00
51460;BME280;37534;39.772;2.718;2022-07-29T04:12:48;101025.75;;;23.61;100.00
51460;BME280;37534;39.772;2.718;2022-07-29T04:15:14;101032.19;;;23.57;100.00
51460;BME280;37534;39.772;2.718;2022-07-29T04:17:40;101059.28;;;23.70;100.00
51460;BME280;37534;39.772;2.718;2022-07-29T04:20:06;101020.94;;;23.44;100.00
51460;BME280;37534;39.772;2.718;2022-07-29T04:22:31;101010.38;;;23.44;100.00
51460;BME280;37534;39.772;2.718;2022-07-29T04:24:57;101035.81;;;23.67;100.00
51460;BME280;37534;39.772;2.718;2022-07-29T04:27:22;101029.56;;;23.57;100.00
51460;BME280;37534;39.772;2.718;2022-07-29T04:29:49;101055.66;;;23.60;100.00
51460;BME280;37534;39.772;2.718;2022-07-29T04:32:14;101005.16;;;23.20;100.00
51460;BME280;37534;39.772;2.718;2022-07-29T04:34:40;101050.44;;;23.36;100.00
51460;BME280;37534;39.772;2.718;2022-07-29T04:37:06;101017.50;;;23.19;100.00
51460;BME280;37534;39.772;2.718;2022-07-29T04:39:31;101029.69;;;23.20;100.00
51460;BME280;37534;39.772;2.718;2022-07-29T04:41:57;101028.53;;;23.24;100.00
51460;BME280;37534;39.772;2.718;2022-07-29T04:44:22;101038.47;;;23.32;100.00
51460;BME280;37534;39.772;2.718;2022-07-29T04:46:48;101056.81;;;23.45;100.00
51460;BME280;37534;39.772;2.718;2022-07-29T04:49:13;101025.53;;;23.29;100.00
51460;BME280;37534;39.772;2.718;2022-07-29T04:51:39;101055.59;;;23.38;100.00
51460;BME280;37534;39.772;2.718;2022-07-29T04:54:05;101070.72;;;23.47;100.00
51460;BME280;37534;39.772;2.718;2022-07-29T04:56:31;101063.78;;;23.46;100.00
51460;BME280;37534;39.772;2.718;2022-07-29T04:58:57;101044.22;;;23.37;100.00
51460;BME280;37534;39.772;2.718;2022-07-29T05:01:22;101058.41;;;23.47;100.00
51460;BME280;37534;39.772;2.718;2022-07-29T05:03:48;101028.53;;;23.24;100.00
51460;BME280;37534;39.772;2.718;2022-07-29T05:06:14;101087.75;;;23.54;100.00
51460;BME280;37534;39.772;2.718;2022-07-29T05:08:39;101084.00;;;23.45;100.00
51460;BME280;37534;39.772;2.718;2022-07-29T05:11:05;101044.88;;;23.16;100.00
51460;BME280;37534;39.772;2.718;2022-07-29T05:13:30;101050.88;;;23.19;100.00
51460;BME280;37534;39.772;2.718;2022-07-29T05:15:56;101091.31;;;23.53;100.00
51460;BME280;37534;39.772;2.718;2022-07-29T05:18:24;101067.81;;;23.39;100.00
51460;BME280;37534;39.772;2.718;2022-07-29T05:20:50;101090.00;;;23.47;100.00
51460;BME280;37534;39.772;2.718;2022-07-29T05:23:15;101076.78;;;23.36;100.00
51460;BME280;37534;39.772;2.718;2022-07-29T05:25:41;101069.47;;;23.40;100.00
51460;BME280;37534;39.772;2.718;2022-07-29T05:28:07;101078.34;;;23.39;100.00
51460;BME280;37534;39.772;2.718;2022-07-29T05:30:32;101068.88;;;23.36;100.00
51460;BME280;37534;39.772;2.718;2022-07-29T05:32:58;101070.09;;;23.43;100.00
51460;BME280;37534;39.772;2.718;2022-07-29T05:35:23;101082.22;;;23.57;100.00
51460;BME280;37534;39.772;2.718;2022-07-29T05:37:49;101085.47;;;23.61;100.00
51460;BME280;37534;39.772;2.718;2022-07-29T05:40:14;101087.06;;;23.63;100.00
51460;BME280;37534;39.772;2.718;2022-07-29T05:42:40;101081.78;;;23.63;100.00
51460;BME280;37534;39.772;2.718;2022-07-29T05:45:06;101116.84;;;23.88;100.00
51460;BME280;37534;39.772;2.718;2022-07-29T05:47:31;101083.22;;;23.67;100.00
51460;BME280;37534;39.772;2.718;2022-07-29T05:49:57;101124.75;;;23.99;100.00
51460;BME280;37534;39.772;2.718;2022-07-29T05:52:23;101091.78;;;23.82;100.00
51460;BME280;37534;39.772;2.718;2022-07-29T05:54:48;101073.19;;;23.72;100.00
51460;BME280;37534;39.772;2.718;2022-07-29T05:57:19;101082.09;;;23.83;100.00
51460;BME280;37534;39.772;2.718;2022-07-29T05:59:44;101075.63;;;23.98;100.00
51460;BME280;37534;39.772;2.718;2022-07-29T06:02:10;101121.56;;;24.41;100.00
51460;BME280;37534;39.772;2.718;2022-07-29T06:04:39;101100.34;;;24.31;100.00
51460;BME280;37534;39.772;2.718;2022-07-29T06:07:07;101088.50;;;24.25;100.00
51460;BME280;37534;39.772;2.718;2022-07-29T06:09:34;101115.94;;;24.57;100.00
51460;BME280;37534;39.772;2.718;2022-07-29T06:12:00;101067.50;;;24.35;100.00
51460;BME280;37534;39.772;2.718;2022-07-29T06:14:26;101081.06;;;24.64;100.00
51460;BME280;37534;39.772;2.718;2022-07-29T06:16:55;101070.00;;;24.71;100.00
51460;BME280;37534;39.772;2.718;2022-07-29T06:19:20;101127.97;;;25.16;100.00
51460;BME280;37534;39.772;2.718;2022-07-29T06:21:46;101098.34;;;25.12;100.00
51460;BME280;37534;39.772;2.718;2022-07-29T06:24:14;101106.59;;;25.30;100.00
51460;BME280;37534;39.772;2.718;2022-07-29T06:26:40;101095.91;;;25.32;100.00
51460;BME280;37534;39.772;2.718;2022-07-29T06:29:06;101124.00;;;25.54;100.00
51460;BME280;37534;39.772;2.718;2022-07-29T06:31:32;101139.88;;;25.75;100.00
51460;BME280;37534;39.772;2.718;2022-07-29T06:33:58;101108.56;;;25.70;100.00
51460;BME280;37534;39.772;2.718;2022-07-29T06:36:23;101095.78;;;25.75;100.00
51460;BME280;37534;39.772;2.718;2022-07-29T06:38:49;101119.34;;;25.99;100.00
51460;BME280;37534;39.772;2.718;2022-07-29T06:41:14;101112.16;;;26.11;100.00
51460;BME280;37534;39.772;2.718;2022-07-29T06:43:45;101120.06;;;26.32;100.00
51460;BME280;37534;39.772;2.718;2022-07-29T06:46:15;101136.00;;;26.52;100.00
51460;BME280;37534;39.772;2.718;2022-07-29T06:48:42;101139.53;;;26.52;100.00
51460;BME280;37534;39.772;2.718;2022-07-29T06:51:09;101104.13;;;26.44;100.00
51460;BME280;37534;39.772;2.718;2022-07-29T06:53:36;101133.06;;;26.86;100.00
51460;BME280;37534;39.772;2.718;2022-07-29T06:56:03;101135.06;;;27.03;100.00
51460;BME280;37534;39.772;2.718;2022-07-29T06:58:29;101122.25;;;27.08;100.00
51460;BME280;37534;39.772;2.718;2022-07-29T07:00:56;101100.13;;;27.09;100.00
51460;BME280;37534;39.772;2.718;2022-07-29T07:03:22;101101.81;;;27.30;98.33
51460;BME280;37534;39.772;2.718;2022-07-29T07:05:48;101144.31;;;27.67;94.66
51460;BME280;37534;39.772;2.718;2022-07-29T07:08:14;101098.88;;;27.53;90.83
51460;BME280;37534;39.772;2.718;2022-07-29T07:10:42;101112.38;;;27.69;92.51
51460;BME280;37534;39.772;2.718;2022-07-29T07:13:07;101121.56;;;27.84;91.45
51460;BME280;37534;39.772;2.718;2022-07-29T07:15:33;101124.75;;;27.98;91.46
51460;BME280;37534;39.772;2.718;2022-07-29T07:18:00;101113.88;;;28.01;91.12
51460;BME280;37534;39.772;2.718;2022-07-29T07:20:25;101120.81;;;28.12;93.79
51460;BME280;37534;39.772;2.718;2022-07-29T07:22:51;101125.78;;;28.24;93.60
51460;BME280;37534;39.772;2.718;2022-07-29T07:25:17;101114.91;;;28.28;89.03
51460;BME280;37534;39.772;2.718;2022-07-29T07:27:43;101094.34;;;28.30;88.91
51460;BME280;37534;39.772;2.718;2022-07-29T07:30:09;101095.25;;;28.48;90.04
51460;BME280;37534;39.772;2.718;2022-07-29T07:32:35;101102.16;;;28.69;88.92
51460;BME280;37534;39.772;2.718;2022-07-29T07:35:01;101108.78;;;28.82;87.92
51460;BME280;37534;39.772;2.718;2022-07-29T07:37:27;101107.59;;;28.95;88.81
51460;BME280;37534;39.772;2.718;2022-07-29T07:39:53;101126.97;;;29.23;88.03
51460;BME280;37534;39.772;2.718;2022-07-29T07:42:19;101101.72;;;29.19;86.13
51460;BME280;37534;39.772;2.718;2022-07-29T07:44:45;101111.31;;;29.38;85.71
51460;BME280;37534;39.772;2.718;2022-07-29T07:47:12;101093.56;;;29.38;83.95
51460;BME280;37534;39.772;2.718;2022-07-29T07:49:38;101124.66;;;29.64;83.01
51460;BME280;37534;39.772;2.718;2022-07-29T07:52:03;101101.72;;;29.63;81.54
51460;BME280;37534;39.772;2.718;2022-07-29T07:54:29;101106.94;;;29.73;82.04
51460;BME280;37534;39.772;2.718;2022-07-29T07:56:55;101114.69;;;29.84;82.05
51460;BME280;37534;39.772;2.718;2022-07-29T07:59:20;101106.03;;;29.82;80.08
51460;BME280;37534;39.772;2.718;2022-07-29T08:01:46;101087.94;;;29.86;79.73
51460;BME280;37534;39.772;2.718;2022-07-29T08:04:11;101081.41;;;30.06;76.85
51460;BME280;37534;39.772;2.718;2022-07-29T08:06:37;101092.44;;;30.20;75.60
51460;BME280;37534;39.772;2.718;2022-07-29T08:09:04;101081.72;;;30.03;74.15
51460;BME280;37534;39.772;2.718;2022-07-29T08:11:30;101123.41;;;30.29;73.07
51460;BME280;37534;39.772;2.718;2022-07-29T08:13:56;101097.41;;;30.14;71.62
51460;BME280;37534;39.772;2.718;2022-07-29T08:16:21;101084.09;;;30.14;73.09
51460;BME280;37534;39.772;2.718;2022-07-29T08:18:47;101080.75;;;30.12;76.47
51460;BME280;37534;39.772;2.718;2022-07-29T08:21:15;101099.97;;;30.32;77.93
51460;BME280;37534;39.772;2.718;2022-07-29T08:23:42;101083.25;;;30.40;76.98
51460;BME280;37534;39.772;2.718;2022-07-29T08:26:41;101090.81;;;30.61;77.80
51460;BME280;37534;39.772;2.718;2022-07-29T08:29:07;101108.66;;;30.85;75.35
51460;BME280;37534;39.772;2.718;2022-07-29T08:31:32;101111.66;;;30.90;77.45
51460;BME280;37534;39.772;2.718;2022-07-29T08:33:58;101112.06;;;31.04;78.23
51460;BME280;37534;39.772;2.718;2022-07-29T08:36:25;101117.38;;;31.12;78.60
51460;BME280;37534;39.772;2.718;2022-07-29T08:38:51;101106.38;;;31.07;79.65
51460;BME280;37534;39.772;2.718;2022-07-29T08:41:18;101113.72;;;31.21;78.03
51460;BME280;37534;39.772;2.718;2022-07-29T08:43:44;101114.75;;;31.37;77.45
51460;BME280;37534;39.772;2.718;2022-07-29T08:46:10;101095.75;;;31.40;76.89
51460;BME280;37534;39.772;2.718;2022-07-29T08:48:36;101095.28;;;31.53;77.17
51460;BME280;37534;39.772;2.718;2022-07-29T08:51:02;101096.44;;;31.67;75.43
51460;BME280;37534;39.772;2.718;2022-07-29T08:53:28;101083.78;;;31.52;73.26
51460;BME280;37534;39.772;2.718;2022-07-29T08:55:54;101113.25;;;31.75;72.69
51460;BME280;37534;39.772;2.718;2022-07-29T08:58:21;101105.91;;;31.77;72.51
51460;BME280;37534;39.772;2.718;2022-07-29T09:00:52;101101.06;;;31.73;72.33
51460;BME280;37534;39.772;2.718;2022-07-29T09:03:20;101112.06;;;31.78;72.40
51460;BME280;37534;39.772;2.718;2022-07-29T09:05:48;101117.06;;;31.81;70.99
51460;BME280;37534;39.772;2.718;2022-07-29T09:08:16;101109.22;;;31.88;70.18
51460;BME280;37534;39.772;2.718;2022-07-29T09:10:42;101113.38;;;31.90;68.82
51460;BME280;37534;39.772;2.718;2022-07-29T09:13:08;101113.06;;;31.85;69.83
51460;BME280;37534;39.772;2.718;2022-07-29T09:15:34;101121.72;;;31.95;67.98
51460;BME280;37534;39.772;2.718;2022-07-29T09:18:00;101090.06;;;31.68;69.87
51460;BME280;37534;39.772;2.718;2022-07-29T09:20:26;101108.38;;;31.87;71.31
51460;BME280;37534;39.772;2.718;2022-07-29T09:23:12;101130.69;;;31.94;69.32
51460;BME280;37534;39.772;2.718;2022-07-29T09:25:41;101129.38;;;31.90;66.18
51460;BME280;37534;39.772;2.718;2022-07-29T09:28:07;101140.88;;;31.99;66.33
51460;BME280;37534;39.772;2.718;2022-07-29T09:30:33;101144.72;;;32.13;66.34
51460;BME280;37534;39.772;2.718;2022-07-29T09:33:01;101142.53;;;32.25;65.80
51460;BME280;37534;39.772;2.718;2022-07-29T09:35:31;101142.13;;;32.36;66.58
51460;BME280;37534;39.772;2.718;2022-07-29T09:37:57;101150.78;;;32.46;67.82
51460;BME280;37534;39.772;2.718;2022-07-29T09:40:26;101143.28;;;32.42;68.14
51460;BME280;37534;39.772;2.718;2022-07-29T09:42:53;101147.00;;;32.24;69.52
51460;BME280;37534;39.772;2.718;2022-07-29T09:45:34;101148.69;;;32.25;67.63
51460;BME280;37534;39.772;2.718;2022-07-29T09:48:22;101142.03;;;32.13;68.20
51460;BME280;37534;39.772;2.718;2022-07-29T09:50:48;101115.03;;;32.08;69.24
51460;BME280;37534;39.772;2.718;2022-07-29T09:53:37;101158.00;;;32.29;69.47
51460;BME280;37534;39.772;2.718;2022-07-29T09:56:03;101165.59;;;32.49;67.94
51460;BME280;37534;39.772;2.718;2022-07-29T09:58:30;101155.25;;;32.54;69.46
51460;BME280;37534;39.772;2.718;2022-07-29T10:00:58;101158.50;;;32.72;67.06
51460;BME280;37534;39.772;2.718;2022-07-29T10:03:24;101150.63;;;32.79;64.47
51460;BME280;37534;39.772;2.718;2022-07-29T10:06:19;101155.41;;;32.92;67.34
51460;BME280;37534;39.772;2.718;2022-07-29T10:08:44;101140.44;;;32.83;65.40
51460;BME280;37534;39.772;2.718;2022-07-29T10:11:15;101153.00;;;33.05;68.23
51460;BME280;37534;39.772;2.718;2022-07-29T10:13:43;101147.94;;;33.10;68.92
51460;BME280;37534;39.772;2.718;2022-07-29T10:16:09;101147.47;;;33.07;67.85
51460;BME280;37534;39.772;2.718;2022-07-29T10:18:38;101159.84;;;33.31;69.32
51460;BME280;37534;39.772;2.718;2022-07-29T10:21:04;101154.19;;;33.26;67.21
51460;BME280;37534;39.772;2.718;2022-07-29T10:23:30;101158.50;;;33.35;68.73
51460;BME280;37534;39.772;2.718;2022-07-29T10:25:57;101160.44;;;33.41;69.32
51460;BME280;37534;39.772;2.718;2022-07-29T10:28:22;101171.19;;;33.56;67.63
51460;BME280;37534;39.772;2.718;2022-07-29T10:30:50;101172.56;;;33.52;66.72
51460;BME280;37534;39.772;2.718;2022-07-29T10:36:45;101173.28;;;33.69;66.40
51460;BME280;37534;39.772;2.718;2022-07-29T10:42:21;101169.06;;;33.51;63.94
51460;BME280;37534;39.772;2.718;2022-07-29T10:44:50;101176.00;;;33.61;62.33
51460;BME280;37534;39.772;2.718;2022-07-29T10:47:23;101160.59;;;33.63;63.45
51460;BME280;37534;39.772;2.718;2022-07-29T10:50:00;101179.47;;;33.84;63.44
51460;BME280;37534;39.772;2.718;2022-07-29T10:55:41;101172.13;;;34.01;61.89
51460;BME280;37534;39.772;2.718;2022-07-29T10:58:14;101165.56;;;34.04;62.11
51460;BME280;37534;39.772;2.718;2022-07-29T11:00:40;101165.56;;;34.04;61.56
51460;BME280;37534;39.772;2.718;2022-07-29T11:03:05;101153.50;;;34.23;60.79
51460;BME280;37534;39.772;2.718;2022-07-29T11:05:52;101143.06;;;34.13;59.85
51460;BME280;37534;39.772;2.718;2022-07-29T11:08:21;101165.25;;;34.37;60.64
51460;BME280;37534;39.772;2.718;2022-07-29T11:10:49;101159.06;;;34.36;60.65
51460;BME280;37534;39.772;2.718;2022-07-29T11:16:07;101164.22;;;34.53;59.69
51460;BME280;37534;39.772;2.718;2022-07-29T11:18:32;101142.03;;;34.44;60.74
51460;BME280;37534;39.772;2.718;2022-07-29T11:20:58;101157.09;;;34.60;60.76
51460;BME280;37534;39.772;2.718;2022-07-29T11:23:32;101146.63;;;34.65;61.38
51460;BME280;37534;39.772;2.718;2022-07-29T11:26:17;101151.16;;;34.64;61.14
51460;BME280;37534;39.772;2.718;2022-07-29T11:28:54;101132.34;;;34.43;61.75
51460;BME280;37534;39.772;2.718;2022-07-29T11:31:37;101128.19;;;34.40;60.96
51460;BME280;37534;39.772;2.718;2022-07-29T11:34:32;101150.78;;;34.67;60.65
51460;BME280;37534;39.772;2.718;2022-07-29T11:45:00;101143.00;;;34.21;61.61
51460;BME280;37534;39.772;2.718;2022-07-29T11:47:27;101164.75;;;34.48;62.24
51460;BME280;37534;39.772;2.718;2022-07-29T11:49:57;101182.31;;;34.51;62.03
51460;BME280;37534;39.772;2.718;2022-07-29T11:52:34;101183.59;;;34.55;60.85
51460;BME280;37534;39.772;2.718;2022-07-29T11:55:04;101152.69;;;34.22;62.74
51460;BME280;37534;39.772;2.718;2022-07-29T11:57:30;101172.06;;;34.54;61.88
51460;BME280;37534;39.772;2.718;2022-07-29T11:59:58;101156.91;;;34.61;60.63
51460;BME280;37534;39.772;2.718;2022-07-29T12:02:24;101181.81;;;34.77;60.43
51460;BME280;37534;39.772;2.718;2022-07-29T12:04:55;101184.94;;;34.95;59.56
51460;BME280;37534;39.772;2.718;2022-07-29T12:07:30;101170.47;;;34.75;59.01
51460;BME280;37534;39.772;2.718;2022-07-29T12:09:56;101172.78;;;34.78;60.96
51460;BME280;37534;39.772;2.718;2022-07-29T12:12:22;101194.63;;;34.96;60.94
51460;BME280;37534;39.772;2.718;2022-07-29T12:14:48;101177.91;;;34.94;60.45
51460;BME280;37534;39.772;2.718;2022-07-29T12:17:30;101186.47;;;35.04;59.28
51460;BME280;37534;39.772;2.718;2022-07-29T12:20:00;101188.19;;;35.12;59.19
51460;BME280;37534;39.772;2.718;2022-07-29T12:22:28;101185.59;;;35.19;59.09
51460;BME280;37534;39.772;2.718;2022-07-29T12:24:54;101171.81;;;35.00;57.87
51460;BME280;37534;39.772;2.718;2022-07-29T12:27:20;101161.97;;;34.71;58.79
51460;BME280;37534;39.772;2.718;2022-07-29T12:29:59;101196.56;;;35.02;57.72
51460;BME280;37534;39.772;2.718;2022-07-29T12:32:45;101200.56;;;35.28;56.83
51460;BME280;37534;39.772;2.718;2022-07-29T12:35:18;101188.94;;;35.42;57.36
51460;BME280;37534;39.772;2.718;2022-07-29T12:37:45;101183.16;;;35.67;56.75
51460;BME280;37534;39.772;2.718;2022-07-29T12:40:14;101190.38;;;35.67;56.14
51460;BME280;37534;39.772;2.718;2022-07-29T12:43:05;101192.38;;;35.58;57.28
51460;BME280;37534;39.772;2.718;2022-07-29T12:45:32;101184.59;;;35.41;56.33
51460;BME280;37534;39.772;2.718;2022-07-29T12:47:57;101185.22;;;35.44;57.71
51460;BME280;37534;39.772;2.718;2022-07-29T12:50:23;101187.88;;;35.00;60.14
51460;BME280;37534;39.772;2.718;2022-07-29T12:52:50;101192.09;;;35.10;59.68
51460;BME280;37534;39.772;2.718;2022-07-29T12:55:16;101184.44;;;35.21;60.89
51460;BME280;37534;39.772;2.718;2022-07-29T12:58:01;101181.81;;;35.13;60.08
51460;BME280;37534;39.772;2.718;2022-07-29T13:00:27;101192.78;;;35.33;59.99
51460;BME280;37534;39.772;2.718;2022-07-29T13:02:58;101187.28;;;35.41;60.34
51460;BME280;37534;39.772;2.718;2022-07-29T13:05:24;101181.44;;;35.16;62.73
51460;BME280;37534;39.772;2.718;2022-07-29T13:08:16;101184.75;;;35.18;61.51
51460;BME280;37534;39.772;2.718;2022-07-29T13:10:45;101193.63;;;34.97;62.09
51460;BME280;37534;39.772;2.718;2022-07-29T13:13:13;101178.69;;;34.88;61.79
51460;BME280;37534;39.772;2.718;2022-07-29T13:15:43;101181.00;;;35.13;60.51
51460;BME280;37534;39.772;2.718;2022-07-29T13:18:29;101183.97;;;35.39;60.50
51460;BME280;37534;39.772;2.718;2022-07-29T13:20:56;101180.41;;;35.32;60.77
51460;BME280;37534;39.772;2.718;2022-07-29T13:23:22;101186.31;;;35.49;60.78
51460;BME280;37534;39.772;2.718;2022-07-29T13:25:47;101166.53;;;35.29;60.32
51460;BME280;37534;39.772;2.718;2022-07-29T13:28:13;101173.94;;;34.90;60.76
51460;BME280;37534;39.772;2.718;2022-07-29T13:30:42;101180.97;;;34.91;60.37